Time;durP1;ratioP1;P1;durP2;ratioP2;P2;SDS_P1;SDS_P2;PMS_P1;PMS_P2;Temp;Humidity;BMP_temperature;BMP_pressure;BME280_temperature;BME280_humidity;BME280_pressure;Samples;Min_cycle;Max_cycle;Signal;HPM_P1;HPM_P2
2023/05/14 00:01:00;;;;;;;7.77;7.07;;;16.90;97.90;;;;;;4988621;28;20216;-74
2023/05/14 00:03:27;;;;;;;10.17;7.03;;;16.90;98.00;;;;;;4987778;28;20230;-73
2023/05/14 00:05:55;;;;;;;8.13;7.23;;;16.90;98.00;;;;;;4988627;28;20637;-73
2023/05/14 00:08:22;;;;;;;8.00;7.20;;;16.90;98.10;;;;;;4987669;28;20242;-73
2023/05/14 00:10:49;;;;;;;7.93;7.33;;;16.90;98.10;;;;;;4988305;28;20246;-72
2023/05/14 00:13:15;;;;;;;8.53;7.73;;;16.90;98.20;;;;;;4988121;28;20289;-72
2023/05/14 00:15:43;;;;;;;10.13;7.50;;;16.90;98.20;;;;;;4988050;28;20725;-71
2023/05/14 00:18:11;;;;;;;8.07;7.27;;;16.80;98.70;;;;;;4988083;28;20306;-73
2023/05/14 00:20:37;;;;;;;8.37;7.57;;;16.80;98.60;;;;;;4988286;28;20686;-73
2023/05/14 00:23:06;;;;;;;8.80;8.00;;;16.70;98.80;;;;;;4988366;28;20245;-73
2023/05/14 00:25:33;;;;;;;9.33;8.00;;;16.70;99.00;;;;;;4987649;28;20220;-73
2023/05/14 00:27:59;;;;;;;9.57;7.63;;;16.70;99.10;;;;;;4987779;28;20206;-75
2023/05/14 00:30:26;;;;;;;8.20;7.50;;;16.70;99.20;;;;;;4987997;28;20300;-71
2023/05/14 00:32:53;;;;;;;15.00;8.70;;;16.60;99.10;;;;;;4985374;28;20779;-71
2023/05/14 00:35:21;;;;;;;11.70;7.77;;;16.60;99.20;;;;;;4983087;28;20317;-71
2023/05/14 00:37:48;;;;;;;9.90;7.17;;;16.50;99.30;;;;;;4987654;28;20229;-71
2023/05/14 00:40:16;;;;;;;8.67;7.77;;;16.50;99.50;;;;;;4987618;28;20249;-71
2023/05/14 00:42:43;;;;;;;8.87;7.97;;;16.50;99.80;;;;;;4987582;28;20217;-72
2023/05/14 00:45:10;;;;;;;9.30;8.30;;;16.50;99.70;;;;;;4987827;28;20652;-72
2023/05/14 00:47:39;;;;;;;10.47;7.60;;;16.40;99.70;;;;;;4988026;28;20660;-72
2023/05/14 00:50:06;;;;;;;8.70;7.90;;;16.40;99.70;;;;;;4987906;28;20209;-73
2023/05/14 00:52:33;;;;;;;9.30;7.57;;;16.40;99.90;;;;;;4987982;28;20250;-72
2023/05/14 00:55:03;;;;;;;8.03;7.27;;;16.40;99.90;;;;;;4987668;28;20233;-72
2023/05/14 00:57:31;;;;;;;7.90;7.23;;;16.40;99.90;;;;;;4987868;28;20230;-72
2023/05/14 00:59:58;;;;;;;9.37;8.23;;;16.40;99.90;;;;;;4987486;28;20229;-72
2023/05/14 01:02:25;;;;;;;11.57;7.83;;;16.30;99.90;;;;;;4987118;28;20599;-72
2023/05/14 01:04:53;;;;;;;8.27;7.53;;;16.30;99.90;;;;;;4987079;28;20253;-72
2023/05/14 01:07:27;;;;;;;8.90;8.10;;;16.20;99.90;;;;;;4987171;28;20220;-72
2023/05/14 01:10:00;;;;;;;9.03;7.67;;;16.20;99.90;;;;;;4986509;28;20211;-72
2023/05/14 01:12:34;;;;;;;9.47;7.60;;;16.20;99.90;;;;;;4987019;28;20248;-72
2023/05/14 01:15:09;;;;;;;8.67;7.97;;;16.20;99.90;;;;;;4972213;28;20226;-72
2023/05/14 01:17:41;;;;;;;9.20;8.20;;;16.20;99.90;;;;;;4979885;28;20306;-72
2023/05/14 01:20:10;;;;;;;8.27;7.57;;;16.10;99.90;;;;;;4987346;28;20201;-72
2023/05/14 01:22:38;;;;;;;8.30;7.50;;;16.10;99.90;;;;;;4986750;28;20206;-74
2023/05/14 01:25:06;;;;;;;10.33;8.23;;;16.10;99.90;;;;;;4987168;28;20242;-74
2023/05/14 01:27:38;;;;;;;8.13;7.37;;;16.10;99.90;;;;;;4986829;28;20300;-73
2023/05/14 01:30:17;;;;;;;8.90;7.63;;;16.10;99.90;;;;;;4987021;28;20202;-73
2023/05/14 01:32:48;;;;;;;8.50;7.57;;;16.10;99.90;;;;;;4986788;28;20222;-73
2023/05/14 01:35:15;;;;;;;7.77;7.07;;;16.00;99.90;;;;;;4986498;28;20202;-73
2023/05/14 01:37:45;;;;;;;8.00;7.20;;;16.00;99.90;;;;;;4986738;28;20302;-72
2023/05/14 01:40:12;;;;;;;8.07;7.37;;;16.00;99.90;;;;;;4986071;28;20306;-73
2023/05/14 01:42:40;;;;;;;8.07;7.37;;;16.00;99.90;;;;;;4986383;28;20691;-72
2023/05/14 01:45:08;;;;;;;9.80;7.23;;;16.00;99.90;;;;;;4986334;28;20244;-72
2023/05/14 01:47:35;;;;;;;7.73;6.93;;;16.00;99.90;;;;;;4986455;28;20210;-72
2023/05/14 01:50:02;;;;;;;8.00;7.07;;;15.90;99.90;;;;;;4986830;28;20210;-73
2023/05/14 01:52:29;;;;;;;7.97;7.27;;;15.90;99.90;;;;;;4986611;28;20216;-73
2023/05/14 01:54:58;;;;;;;8.03;7.43;;;15.90;99.80;;;;;;4986337;28;20220;-72
2023/05/14 01:57:25;;;;;;;8.73;7.87;;;15.90;99.80;;;;;;4986321;28;20646;-72
2023/05/14 01:59:52;;;;;;;8.43;7.63;;;15.80;99.90;;;;;;4985784;28;20229;-72
2023/05/14 02:02:19;;;;;;;8.23;7.53;;;15.90;99.90;;;;;;4985917;28;20324;-72
2023/05/14 02:04:46;;;;;;;8.07;7.33;;;15.80;99.90;;;;;;4986205;28;20233;-72
2023/05/14 02:07:13;;;;;;;9.37;7.73;;;15.80;99.90;;;;;;4986059;28;20210;-72
2023/05/14 02:09:40;;;;;;;8.07;7.30;;;15.80;99.90;;;;;;4984259;28;20659;-72
2023/05/14 02:12:09;;;;;;;10.23;7.90;;;15.60;99.90;;;;;;4967190;28;20211;-71
2023/05/14 02:14:37;;;;;;;8.50;7.87;;;15.60;99.90;;;;;;4967049;28;20219;-72
2023/05/14 02:17:04;;;;;;;8.17;7.47;;;15.60;99.90;;;;;;4975099;28;20205;-72
2023/05/14 02:19:31;;;;;;;8.37;7.67;;;15.50;99.90;;;;;;4986552;28;20308;-72
2023/05/14 02:21:59;;;;;;;9.53;7.97;;;15.50;99.90;;;;;;4985988;28;20305;-72
2023/05/14 02:24:26;;;;;;;9.80;8.20;;;15.40;99.90;;;;;;4985794;28;20237;-72
2023/05/14 02:26:53;;;;;;;9.73;8.50;;;15.40;99.90;;;;;;4985952;28;20308;-72
2023/05/14 02:29:21;;;;;;;9.17;8.27;;;15.40;99.90;;;;;;4985541;28;20302;-72
2023/05/14 02:31:48;;;;;;;8.33;7.60;;;15.40;99.90;;;;;;4986104;28;20289;-72
2023/05/14 02:34:15;;;;;;;8.90;8.00;;;15.50;99.90;;;;;;4985925;28;20218;-72
2023/05/14 02:36:42;;;;;;;9.53;8.30;;;15.50;99.90;;;;;;4968965;28;20289;-72
2023/05/14 02:39:09;;;;;;;9.63;8.43;;;15.50;99.90;;;;;;4966465;28;20314;-72
2023/05/14 02:41:36;;;;;;;10.93;8.40;;;15.50;99.90;;;;;;4984632;28;20233;-72
2023/05/14 02:44:03;;;;;;;9.33;8.37;;;15.60;99.90;;;;;;4984142;28;20206;-72
2023/05/14 02:46:32;;;;;;;8.17;7.43;;;15.60;99.90;;;;;;4985968;28;20514;-72
2023/05/14 02:48:59;;;;;;;8.73;7.93;;;15.60;99.90;;;;;;4986147;28;20206;-72
2023/05/14 02:51:26;;;;;;;8.77;7.93;;;15.60;99.90;;;;;;4985636;28;20297;-72
2023/05/14 02:53:53;;;;;;;9.00;8.20;;;15.60;99.90;;;;;;4985645;28;20588;-73
2023/05/14 02:56:20;;;;;;;8.73;8.03;;;15.60;99.90;;;;;;4985688;28;20210;-72
2023/05/14 02:58:47;;;;;;;10.07;8.40;;;15.60;99.90;;;;;;4985415;28;20642;-72
2023/05/14 03:01:13;;;;;;;8.27;7.67;;;15.60;99.90;;;;;;4985782;28;20210;-72
2023/05/14 03:03:42;;;;;;;8.60;7.83;;;15.60;99.90;;;;;;4981451;28;20238;-73
2023/05/14 03:06:09;;;;;;;8.47;7.77;;;15.70;99.90;;;;;;4976966;28;20285;-73
2023/05/14 03:08:36;;;;;;;8.77;8.03;;;15.60;99.90;;;;;;4984764;28;20584;-72
2023/05/14 03:11:03;;;;;;;8.67;7.77;;;15.60;99.90;;;;;;4985722;28;20249;-73
2023/05/14 03:13:30;;;;;;;8.67;7.87;;;15.60;99.90;;;;;;4989084;28;20214;-73
2023/05/14 03:15:56;;;;;;;8.97;7.80;;;15.60;99.90;;;;;;4989062;28;20214;-72
2023/05/14 03:18:23;;;;;;;8.80;7.93;;;15.60;99.90;;;;;;4988805;28;20296;-72
2023/05/14 03:20:51;;;;;;;8.83;7.97;;;15.70;99.90;;;;;;4989354;28;20296;-73
2023/05/14 03:23:18;;;;;;;9.00;8.23;;;15.70;99.90;;;;;;4989022;28;20220;-73
2023/05/14 03:25:45;;;;;;;8.17;7.47;;;15.70;99.90;;;;;;4989074;28;20246;-73
2023/05/14 03:28:12;;;;;;;9.07;7.87;;;15.70;99.90;;;;;;4988694;28;20292;-73
2023/05/14 03:30:39;;;;;;;8.13;7.37;;;15.60;99.90;;;;;;4989279;28;20293;-73
2023/05/14 03:33:06;;;;;;;7.90;7.30;;;15.70;99.90;;;;;;4989053;28;20220;-73
2023/05/14 03:35:33;;;;;;;7.93;7.33;;;15.70;99.90;;;;;;4988956;28;20209;-73
2023/05/14 03:38:01;;;;;;;8.27;7.43;;;15.60;99.90;;;;;;4988885;28;20645;-73
2023/05/14 03:40:28;;;;;;;9.50;7.93;;;15.60;99.90;;;;;;4988321;28;20309;-73
2023/05/14 03:42:55;;;;;;;7.83;7.13;;;15.60;99.90;;;;;;4988547;28;20292;-72
2023/05/14 03:45:22;;;;;;;8.60;6.97;;;15.70;99.90;;;;;;4988543;28;20324;-72
2023/05/14 03:47:49;;;;;;;9.17;7.33;;;15.70;99.90;;;;;;4988632;28;20214;-72
2023/05/14 03:50:16;;;;;;;8.27;7.40;;;15.70;99.90;;;;;;4988437;28;20297;-72
2023/05/14 03:52:43;;;;;;;7.77;6.70;;;15.60;99.90;;;;;;4988696;28;20260;-72
2023/05/14 03:55:11;;;;;;;7.37;6.87;;;15.60;99.90;;;;;;4988038;28;20814;-72
2023/05/14 03:57:38;;;;;;;7.53;6.87;;;15.50;99.90;;;;;;4988505;28;20212;-71
2023/05/14 04:00:06;;;;;;;8.13;6.83;;;15.60;99.90;;;;;;4988379;28;20324;-71
2023/05/14 04:02:33;;;;;;;6.67;6.10;;;15.60;99.90;;;;;;4988119;28;20308;-71
2023/05/14 04:05:00;;;;;;;6.90;6.20;;;15.50;99.90;;;;;;4988199;28;20321;-71
2023/05/14 04:07:27;;;;;;;6.20;5.80;;;15.50;99.90;;;;;;4987979;28;20321;-71
2023/05/14 04:09:54;;;;;;;7.13;6.40;;;15.60;99.90;;;;;;4983037;28;20321;-71
2023/05/14 04:12:22;;;;;;;6.87;6.37;;;15.60;99.90;;;;;;4967583;28;20289;-72
2023/05/14 04:14:49;;;;;;;8.03;6.50;;;15.60;99.90;;;;;;4967924;28;20298;-71
2023/05/14 04:17:16;;;;;;;7.80;6.10;;;15.60;99.90;;;;;;4967652;28;20306;-71
2023/05/14 04:19:43;;;;;;;7.03;6.33;;;15.70;99.90;;;;;;4967536;28;20661;-71
2023/05/14 04:22:09;;;;;;;9.40;5.80;;;15.70;99.90;;;;;;4967669;28;20327;-71
2023/05/14 04:24:36;;;;;;;6.20;5.73;;;15.70;99.90;;;;;;4966238;28;20329;-71
2023/05/14 04:27:04;;;;;;;8.20;6.37;;;15.70;99.90;;;;;;4967716;28;20322;-73
2023/05/14 04:29:32;;;;;;;5.60;5.10;;;15.70;99.90;;;;;;4967302;28;20289;-72
2023/05/14 04:31:59;;;;;;;6.57;5.80;;;15.70;99.90;;;;;;4968678;28;20210;-72
2023/05/14 04:34:26;;;;;;;6.37;5.80;;;15.70;99.90;;;;;;4986369;28;20218;-71
2023/05/14 04:36:55;;;;;;;7.00;6.30;;;15.70;99.90;;;;;;4986533;28;20209;-71
2023/05/14 04:39:22;;;;;;;6.17;5.53;;;15.70;99.90;;;;;;4985876;28;20676;-71
2023/05/14 04:41:49;;;;;;;6.23;5.63;;;15.70;99.90;;;;;;4984812;28;20309;-71
2023/05/14 04:44:16;;;;;;;7.47;6.83;;;15.70;99.90;;;;;;4986195;28;20306;-71
2023/05/14 04:46:44;;;;;;;6.67;5.70;;;15.60;99.90;;;;;;4987103;28;20244;-71
2023/05/14 04:49:11;;;;;;;8.30;6.20;;;15.50;99.90;;;;;;4986682;28;20719;-71
2023/05/14 04:51:38;;;;;;;7.03;5.87;;;15.50;99.90;;;;;;4986891;28;20294;-71
2023/05/14 04:54:05;;;;;;;5.57;5.10;;;15.50;99.90;;;;;;4986954;28;20546;-71
2023/05/14 04:56:31;;;;;;;5.80;5.40;;;15.50;99.90;;;;;;4986686;28;20220;-71
2023/05/14 04:58:58;;;;;;;7.87;5.13;;;15.60;99.90;;;;;;4986488;28;20229;-71
2023/05/14 05:01:25;;;;;;;5.60;5.10;;;15.60;99.90;;;;;;4986534;28;20214;-71
2023/05/14 05:03:54;;;;;;;6.90;5.20;;;15.60;99.90;;;;;;4986335;28;20262;-71
2023/05/14 05:06:21;;;;;;;5.03;4.63;;;15.70;99.90;;;;;;4986452;28;20272;-71
2023/05/14 05:08:47;;;;;;;7.17;5.00;;;15.80;99.80;;;;;;4949333;28;1093706;-71
2023/05/14 05:11:15;;;;;;;5.77;5.13;;;15.90;99.40;;;;;;4987208;28;20707;-71
2023/05/14 05:13:41;;;;;;;5.00;4.40;;;15.90;99.30;;;;;;4968312;28;20265;-72
2023/05/14 05:16:08;;;;;;;7.13;4.60;;;15.90;98.70;;;;;;4968218;28;20232;-70
2023/05/14 05:18:35;;;;;;;5.00;3.73;;;15.90;98.60;;;;;;4979797;28;20637;-71
2023/05/14 05:21:03;;;;;;;4.73;4.27;;;16.00;98.70;;;;;;4976951;28;20226;-71
2023/05/14 05:23:30;;;;;;;6.03;4.20;;;16.10;98.60;;;;;;4976388;28;20318;-71
2023/05/14 05:25:57;;;;;;;4.53;3.97;;;16.10;98.20;;;;;;4978062;28;20313;-71
2023/05/14 05:28:24;;;;;;;5.67;4.00;;;16.20;97.80;;;;;;4978022;28;20261;-71
2023/05/14 05:30:51;;;;;;;4.13;3.83;;;16.30;97.30;;;;;;4975540;28;20210;-72
2023/05/14 05:33:18;;;;;;;5.67;4.17;;;16.40;97.20;;;;;;4978504;28;20233;-72
2023/05/14 05:35:47;;;;;;;5.50;4.03;;;16.40;96.80;;;;;;4971664;28;20199;-72
2023/05/14 05:38:17;;;;;;;5.60;3.50;;;16.50;96.40;;;;;;4972989;28;20222;-72
2023/05/14 05:40:43;;;;;;;5.00;3.97;;;16.50;96.30;;;;;;4976072;28;20209;-72
2023/05/14 05:43:12;;;;;;;7.10;4.40;;;16.60;96.00;;;;;;4977852;28;20237;-72
2023/05/14 05:45:39;;;;;;;5.93;3.70;;;16.60;95.90;;;;;;4977380;28;20261;-72
2023/05/14 05:48:06;;;;;;;4.40;4.10;;;16.70;95.30;;;;;;4977276;28;20212;-72
2023/05/14 05:50:33;;;;;;;5.77;4.07;;;16.70;95.10;;;;;;4974860;28;20796;-72
2023/05/14 05:53:00;;;;;;;4.73;4.17;;;16.80;95.20;;;;;;4971869;28;20351;-72
2023/05/14 05:55:29;;;;;;;4.67;3.97;;;16.80;94.70;;;;;;4970659;28;20297;-71
2023/05/14 05:57:58;;;;;;;4.37;3.97;;;16.80;94.40;;;;;;4967606;28;20778;-71
2023/05/14 06:00:25;;;;;;;5.20;3.60;;;16.90;94.70;;;;;;4964934;28;20222;-71
2023/05/14 06:02:52;;;;;;;4.10;3.70;;;16.90;94.70;;;;;;4979764;28;20225;-71
2023/05/14 06:05:19;;;;;;;7.83;4.10;;;16.90;94.20;;;;;;4982172;28;20248;-71
2023/05/14 06:07:46;;;;;;;6.47;3.67;;;17.00;94.10;;;;;;4986134;28;20253;-78
2023/05/14 06:10:13;;;;;;;6.60;4.40;;;17.00;93.80;;;;;;4980742;28;20233;-72
2023/05/14 06:12:41;;;;;;;3.70;3.40;;;17.00;94.10;;;;;;4985886;28;20206;-72
2023/05/14 06:15:08;;;;;;;4.03;3.73;;;17.00;94.10;;;;;;4985617;28;20764;-72
2023/05/14 06:17:35;;;;;;;4.07;3.60;;;17.10;93.60;;;;;;4985325;28;20217;-72
2023/05/14 06:20:04;;;;;;;3.57;3.37;;;17.10;93.60;;;;;;4986038;28;20317;-72
2023/05/14 06:22:31;;;;;;;7.40;3.60;;;17.20;93.90;;;;;;4983061;28;20216;-72
2023/05/14 06:24:58;;;;;;;4.13;3.83;;;17.20;94.00;;;;;;4985356;28;20726;-72
2023/05/14 06:27:24;;;;;;;4.20;3.67;;;17.30;94.10;;;;;;4969663;28;20312;-71
2023/05/14 06:29:53;;;;;;;5.07;3.50;;;17.30;94.20;;;;;;4985836;28;20293;-72
2023/05/14 06:32:20;;;;;;;4.60;3.70;;;17.40;94.30;;;;;;4985329;28;20661;-73
2023/05/14 06:34:47;;;;;;;4.40;3.60;;;17.40;94.90;;;;;;4985656;28;20246;-72
2023/05/14 06:37:14;;;;;;;4.53;3.50;;;17.50;94.90;;;;;;4985687;28;20774;-72
2023/05/14 06:39:45;;;;;;;3.80;3.50;;;17.50;93.90;;;;;;4983315;28;21015;-73
2023/05/14 06:42:12;;;;;;;4.97;3.63;;;17.60;93.80;;;;;;4982119;28;20249;-72
2023/05/14 06:44:40;;;;;;;3.73;3.30;;;17.60;94.00;;;;;;4972570;28;20211;-72
2023/05/14 06:47:08;;;;;;;3.87;3.60;;;17.60;94.10;;;;;;4984094;28;20618;-72
2023/05/14 06:49:35;;;;;;;4.73;3.60;;;17.60;94.10;;;;;;4983215;28;20204;-72
2023/05/14 06:52:02;;;;;;;4.30;3.70;;;17.60;93.60;;;;;;4981854;28;20229;-72
2023/05/14 06:54:29;;;;;;;3.80;3.40;;;17.70;93.00;;;;;;4980737;28;20661;-73
2023/05/14 06:56:57;;;;;;;5.57;3.30;;;17.70;93.00;;;;;;4980624;28;20222;-72
2023/05/14 06:59:23;;;;;;;4.03;3.70;;;17.70;93.20;;;;;;4976126;28;20561;-72
2023/05/14 07:01:50;;;;;;;3.47;3.17;;;17.80;92.90;;;;;;4986429;28;20326;-72
2023/05/14 07:04:19;;;;;;;3.53;3.17;;;17.80;93.30;;;;;;4989211;28;20261;-72
2023/05/14 07:06:45;;;;;;;3.97;3.67;;;17.90;93.10;;;;;;4988651;28;20241;-73
2023/05/14 07:09:13;;;;;;;3.30;3.00;;;17.90;92.90;;;;;;4988237;28;20234;-72
2023/05/14 07:11:40;;;;;;;6.43;3.13;;;17.90;92.80;;;;;;4988939;28;20241;-73
2023/05/14 07:14:07;;;;;;;3.73;3.43;;;17.90;93.00;;;;;;4988934;28;20220;-72
2023/05/14 07:16:34;;;;;;;3.50;3.30;;;18.00;92.80;;;;;;4988500;28;20313;-72
2023/05/14 07:19:01;;;;;;;4.07;3.63;;;18.00;93.00;;;;;;4989783;28;20206;-73
2023/05/14 07:21:30;;;;;;;3.83;3.53;;;18.00;93.20;;;;;;4989156;28;20214;-72
2023/05/14 07:23:57;;;;;;;3.80;3.07;;;18.10;93.30;;;;;;4988983;28;20217;-73
2023/05/14 07:26:25;;;;;;;3.87;3.30;;;18.10;93.40;;;;;;4989068;28;20361;-72
2023/05/14 07:28:52;;;;;;;3.53;3.30;;;18.20;94.10;;;;;;4989026;28;20233;-73
2023/05/14 07:31:19;;;;;;;4.63;3.53;;;18.20;93.40;;;;;;4988782;28;20779;-73
2023/05/14 07:33:45;;;;;;;4.27;3.23;;;18.20;92.70;;;;;;4987833;28;20216;-73
2023/05/14 07:36:12;;;;;;;7.53;3.30;;;18.30;93.00;;;;;;4988299;28;20660;-73
2023/05/14 07:38:41;;;;;;;3.43;3.17;;;18.30;92.90;;;;;;4988853;28;20575;-72
2023/05/14 07:41:08;;;;;;;3.80;3.50;;;18.30;92.80;;;;;;4982207;28;20212;-72
2023/05/14 07:43:34;;;;;;;5.77;3.63;;;18.40;92.70;;;;;;4988113;28;20728;-72
2023/05/14 07:46:01;;;;;;;3.87;3.30;;;18.40;92.60;;;;;;4988423;28;20891;-73
2023/05/14 07:48:28;;;;;;;6.47;3.40;;;18.40;92.40;;;;;;4988492;28;20638;-72
2023/05/14 07:50:55;;;;;;;7.83;3.63;;;18.50;92.50;;;;;;4988574;28;20863;-73
2023/05/14 07:53:22;;;;;;;22.50;4.43;;;18.50;93.30;;;;;;4988157;28;20296;-73
2023/05/14 07:55:50;;;;;;;3.10;2.80;;;18.50;93.60;;;;;;4988217;28;20234;-72
2023/05/14 07:58:17;;;;;;;4.43;3.40;;;18.60;93.30;;;;;;4988018;28;20214;-72
2023/05/14 08:00:44;;;;;;;3.90;3.40;;;18.60;93.10;;;;;;4988525;28;20248;-72
2023/05/14 08:03:11;;;;;;;3.40;3.10;;;18.60;93.60;;;;;;4986991;28;20329;-73
2023/05/14 08:05:38;;;;;;;3.70;3.40;;;18.70;93.40;;;;;;4977508;28;20719;-73
2023/05/14 08:08:05;;;;;;;5.33;3.33;;;18.80;92.50;;;;;;4987943;28;20335;-72
2023/05/14 08:10:32;;;;;;;10.55;3.80;;;18.90;92.30;;;;;;4987804;28;21083;-72
2023/05/14 08:13:00;;;;;;;4.23;3.47;;;18.90;93.00;;;;;;4987549;28;20230;-72
2023/05/14 08:15:27;;;;;;;4.10;3.40;;;19.10;93.00;;;;;;4988054;28;20217;-72
2023/05/14 08:17:54;;;;;;;7.53;3.20;;;19.10;92.50;;;;;;4988090;28;20392;-72
2023/05/14 08:20:21;;;;;;;4.28;3.20;;;19.20;93.10;;;;;;4988007;28;20324;-72
2023/05/14 08:22:48;;;;;;;4.63;3.30;;;19.20;91.80;;;;;;4988231;28;20202;-72
2023/05/14 08:25:15;;;;;;;7.40;3.40;;;19.20;92.10;;;;;;4987680;28;20304;-72
2023/05/14 08:27:42;;;;;;;3.90;2.67;;;19.30;91.70;;;;;;4987892;28;20234;-72
2023/05/14 08:30:11;;;;;;;2.90;2.70;;;19.30;91.40;;;;;;4988157;28;20301;-72
2023/05/14 08:32:38;;;;;;;6.40;2.60;;;19.40;90.50;;;;;;4987574;28;20253;-73
2023/05/14 08:35:06;;;;;;;3.27;2.90;;;19.40;90.60;;;;;;4987452;28;20285;-74
2023/05/14 08:37:32;;;;;;;6.15;3.50;;;19.40;90.10;;;;;;4987547;28;20691;-73
2023/05/14 08:39:59;;;;;;;3.15;2.80;;;19.40;89.80;;;;;;4987065;28;20206;-73
2023/05/14 08:42:28;;;;;;;3.33;2.83;;;19.50;90.00;;;;;;4987231;28;20590;-73
2023/05/14 08:45:00;;;;;;;5.47;3.50;;;19.50;90.00;;;;;;4987303;28;20582;-74
2023/05/14 08:47:30;;;;;;;4.28;3.03;;;19.60;91.30;;;;;;4987012;28;20233;-73
2023/05/14 08:50:03;;;;;;;6.20;3.08;;;19.70;91.40;;;;;;4987131;28;20265;-73
2023/05/14 08:52:30;;;;;;;3.23;2.93;;;19.70;90.50;;;;;;4986822;28;20226;-73
2023/05/14 08:55:00;;;;;;;4.27;3.07;;;19.70;88.60;;;;;;4987046;28;20301;-73
2023/05/14 08:57:28;;;;;;;3.30;3.00;;;19.70;88.60;;;;;;4986780;28;20245;-73
2023/05/14 08:59:56;;;;;;;9.55;3.00;;;19.70;88.80;;;;;;4986835;28;20273;-73
2023/05/14 09:02:24;;;;;;;2.72;2.47;;;19.80;89.10;;;;;;4982491;28;20635;-74
2023/05/14 09:04:56;;;;;;;4.07;2.92;;;19.80;87.60;;;;;;4967438;28;20435;-74
2023/05/14 09:07:23;;;;;;;6.13;3.10;;;19.80;87.70;;;;;;4967431;28;20223;-73
2023/05/14 09:09:51;;;;;;;5.97;3.13;;;19.90;88.30;;;;;;4970949;28;20206;-73
2023/05/14 09:12:19;;;;;;;2.92;2.65;;;19.90;89.00;;;;;;4987033;28;20214;-73
2023/05/14 09:14:48;;;;;;;5.33;2.60;;;20.00;89.00;;;;;;4986587;28;20210;-74
2023/05/14 09:17:15;;;;;;;4.47;2.90;;;20.10;86.60;;;;;;4986559;28;20216;-73
2023/05/14 09:19:43;;;;;;;3.60;2.67;;;20.20;88.10;;;;;;4987343;28;20764;-73
2023/05/14 09:22:13;;;;;;;4.47;2.50;;;20.20;87.90;;;;;;4986781;28;20222;-74
2023/05/14 09:24:40;;;;;;;4.38;2.70;;;20.30;87.80;;;;;;4986382;28;20206;-73
2023/05/14 09:27:08;;;;;;;3.03;2.72;;;20.30;86.30;;;;;;4986969;28;20234;-73
2023/05/14 09:29:35;;;;;;;6.78;5.47;;;20.40;85.60;;;;;;4986406;28;20328;-74
2023/05/14 09:32:06;;;;;;;3.03;2.83;;;20.50;85.20;;;;;;4986822;28;20325;-73
2023/05/14 09:34:36;;;;;;;4.05;2.78;;;20.60;85.90;;;;;;4986904;28;20202;-74
2023/05/14 09:37:05;;;;;;;3.17;2.80;;;20.70;86.70;;;;;;4986998;28;20268;-74
2023/05/14 09:39:35;;;;;;;3.30;2.38;;;20.80;87.00;;;;;;4985571;28;20220;-74
2023/05/14 09:42:02;;;;;;;3.28;2.60;;;20.90;86.10;;;;;;4967465;28;20238;-71
2023/05/14 09:44:29;;;;;;;4.57;2.40;;;21.00;85.90;;;;;;4967049;28;20295;-71
2023/05/14 09:46:56;;;;;;;7.55;3.13;;;21.10;87.90;;;;;;4967160;28;20321;-71
2023/05/14 09:49:23;;;;;;;3.55;2.70;;;21.10;84.10;;;;;;4967078;28;20881;-71
2023/05/14 09:51:51;;;;;;;3.75;2.50;;;21.10;83.40;;;;;;4967179;28;20213;-71
2023/05/14 09:54:18;;;;;;;4.10;2.33;;;21.10;83.70;;;;;;4966975;28;20262;-71
2023/05/14 09:56:46;;;;;;;2.95;2.50;;;21.10;83.80;;;;;;4967287;28;20221;-73
2023/05/14 09:59:13;;;;;;;2.90;2.70;;;21.10;82.60;;;;;;4979202;28;20297;-72
2023/05/14 10:01:42;;;;;;;7.75;3.03;;;21.20;86.20;;;;;;4966935;28;20285;-73
2023/05/14 10:04:11;;;;;;;2.85;2.65;;;21.30;87.00;;;;;;4966961;28;20289;-73
2023/05/14 10:06:38;;;;;;;3.70;2.90;;;21.30;86.40;;;;;;4966980;28;20353;-73
2023/05/14 10:09:12;;;;;;;6.07;2.85;;;21.40;84.80;;;;;;4979875;28;20716;-73
2023/05/14 10:11:42;;;;;;;4.20;3.08;;;21.50;87.30;;;;;;4986465;28;20205;-73
2023/05/14 10:14:16;;;;;;;3.33;2.53;;;21.50;84.10;;;;;;4986312;28;20238;-72
2023/05/14 10:16:48;;;;;;;6.80;2.90;;;21.40;82.90;;;;;;4986110;28;20241;-73
2023/05/14 10:19:17;;;;;;;3.75;3.08;;;21.30;84.10;;;;;;4986182;28;20312;-72
2023/05/14 10:21:47;;;;;;;3.00;2.80;;;21.20;83.50;;;;;;4987096;28;20667;-72
2023/05/14 10:24:15;;;;;;;5.78;2.92;;;21.10;84.40;;;;;;4989945;28;20345;-73
2023/05/14 10:26:42;;;;;;;7.95;2.95;;;21.00;85.30;;;;;;4990184;28;20268;-73
2023/05/14 10:29:11;;;;;;;3.88;2.97;;;20.90;84.40;;;;;;4990014;28;20198;-72
2023/05/14 10:31:49;;;;;;;5.57;2.85;;;20.80;84.20;;;;;;4988476;28;20301;-72
2023/05/14 10:34:33;;;;;;;3.33;3.00;;;20.70;84.10;;;;;;4989644;28;20293;-73
2023/05/14 10:37:01;;;;;;;5.22;3.33;;;20.60;84.20;;;;;;4989715;28;20755;-72
2023/05/14 10:39:44;;;;;;;17.05;3.60;;;20.50;84.40;;;;;;4987722;28;20233;-73
2023/05/14 10:42:13;;;;;;;4.95;2.67;;;20.40;85.00;;;;;;4970325;28;20203;-72
2023/05/14 10:44:50;;;;;;;6.15;2.80;;;20.40;84.90;;;;;;4970241;28;20350;-72
2023/05/14 10:47:17;;;;;;;3.58;3.00;;;20.30;85.70;;;;;;4970231;28;20636;-72
2023/05/14 10:49:47;;;;;;;8.93;3.30;;;20.20;87.60;;;;;;4970193;28;20211;-73
2023/05/14 10:52:17;;;;;;;5.00;3.25;;;20.10;86.30;;;;;;4969917;28;20209;-72
2023/05/14 10:54:49;;;;;;;5.30;3.30;;;20.10;86.70;;;;;;4972795;28;20583;-72
2023/05/14 10:57:18;;;;;;;5.00;3.20;;;20.00;87.20;;;;;;4989204;28;20313;-72
2023/05/14 10:59:47;;;;;;;4.07;2.63;;;20.00;86.60;;;;;;4989271;28;20198;-73
2023/05/14 11:02:25;;;;;;;4.73;2.93;;;20.00;86.20;;;;;;4989190;28;20230;-73
2023/05/14 11:04:57;;;;;;;4.40;2.80;;;20.00;87.00;;;;;;4989614;28;20209;-73
2023/05/14 11:07:30;;;;;;;3.03;2.83;;;20.00;87.60;;;;;;4989093;28;20218;-73
2023/05/14 11:10:01;;;;;;;5.95;2.92;;;20.00;88.00;;;;;;4989155;28;20218;-72
2023/05/14 11:12:29;;;;;;;11.15;2.95;;;19.90;87.70;;;;;;4988579;28;20287;-72
2023/05/14 11:14:59;;;;;;;6.57;3.10;;;19.90;87.60;;;;;;4989257;28;21129;-72
2023/05/14 11:17:27;;;;;;;4.65;3.00;;;19.90;87.60;;;;;;4988868;28;20203;-72
2023/05/14 11:19:54;;;;;;;4.13;2.88;;;20.00;87.40;;;;;;4989026;28;20242;-73
2023/05/14 11:22:21;;;;;;;3.77;2.83;;;20.00;86.60;;;;;;4988783;28;20892;-72
2023/05/14 11:24:48;;;;;;;5.97;3.00;;;20.00;86.00;;;;;;4988491;28;20552;-73
2023/05/14 11:27:16;;;;;;;8.23;3.03;;;20.00;87.10;;;;;;4988675;28;20244;-72
2023/05/14 11:29:44;;;;;;;17.13;3.80;;;20.10;89.00;;;;;;4982193;28;20210;-72
2023/05/14 11:32:14;;;;;;;4.57;3.20;;;20.10;89.30;;;;;;4988258;28;20237;-73
2023/05/14 11:34:41;;;;;;;4.78;3.00;;;20.10;88.70;;;;;;4988635;28;20217;-72
2023/05/14 11:37:09;;;;;;;3.38;3.03;;;20.10;87.70;;;;;;4988709;28;20245;-72
2023/05/14 11:39:37;;;;;;;3.47;2.80;;;20.20;87.60;;;;;;4988424;28;20214;-72
2023/05/14 11:42:05;;;;;;;2.92;2.72;;;20.20;86.90;;;;;;4988881;28;20300;-73
2023/05/14 11:44:32;;;;;;;4.65;3.05;;;20.20;87.30;;;;;;4988592;28;20317;-72
2023/05/14 11:47:00;;;;;;;39.53;4.75;;;20.10;87.80;;;;;;4988625;28;20210;-72
2023/05/14 11:49:28;;;;;;;8.82;3.85;;;20.10;87.20;;;;;;4989268;28;20210;-73
2023/05/14 11:51:59;;;;;;;5.78;3.10;;;20.10;88.00;;;;;;4988656;28;20853;-72
2023/05/14 11:54:27;;;;;;;3.83;2.95;;;20.10;89.40;;;;;;4988747;28;20644;-73
2023/05/14 11:56:55;;;;;;;5.60;2.67;;;20.00;89.50;;;;;;4987952;28;20209;-72
2023/05/14 11:59:23;;;;;;;5.13;2.83;;;20.00;89.50;;;;;;4988554;28;20680;-72
2023/05/14 12:01:51;;;;;;;3.33;3.00;;;20.10;90.30;;;;;;4988725;28;20242;-72
2023/05/14 12:04:21;;;;;;;3.28;3.08;;;20.10;89.90;;;;;;4988639;28;20213;-72
2023/05/14 12:06:50;;;;;;;3.17;2.90;;;20.10;89.60;;;;;;4988087;28;20272;-72
2023/05/14 12:09:17;;;;;;;5.28;2.78;;;20.20;89.10;;;;;;4987725;28;20799;-72
2023/05/14 12:11:45;;;;;;;8.30;3.10;;;20.20;89.90;;;;;;4988637;28;20292;-72
2023/05/14 12:14:14;;;;;;;9.80;3.25;;;20.30;89.90;;;;;;4987864;28;20677;-73
2023/05/14 12:16:43;;;;;;;4.10;2.92;;;20.30;88.20;;;;;;4982751;28;20246;-73
2023/05/14 12:19:11;;;;;;;7.10;3.67;;;20.30;88.40;;;;;;4969113;28;20277;-72
2023/05/14 12:21:39;;;;;;;3.42;2.88;;;20.30;89.00;;;;;;4968797;28;20266;-72
2023/05/14 12:24:10;;;;;;;4.35;3.00;;;20.30;87.90;;;;;;4968398;28;20214;-72
2023/05/14 12:26:38;;;;;;;3.78;3.00;;;20.30;87.90;;;;;;4986319;28;20198;-73
2023/05/14 12:29:06;;;;;;;3.85;2.75;;;20.30;88.20;;;;;;4987402;28;20234;-72
2023/05/14 12:31:35;;;;;;;3.35;3.03;;;20.20;87.90;;;;;;4985100;28;20211;-73
2023/05/14 12:34:03;;;;;;;3.33;3.13;;;20.20;87.50;;;;;;4986916;28;20214;-72
2023/05/14 12:36:31;;;;;;;3.95;3.33;;;20.30;88.10;;;;;;4987447;28;20221;-73
2023/05/14 12:39:00;;;;;;;5.35;3.17;;;20.30;88.10;;;;;;4987586;28;20252;-72
2023/05/14 12:41:29;;;;;;;3.42;3.13;;;20.30;87.30;;;;;;4987524;28;20731;-72
2023/05/14 12:43:55;;;;;;;4.85;3.50;;;20.30;86.70;;;;;;4987275;28;20301;-73
2023/05/14 12:46:23;;;;;;;6.47;3.35;;;20.40;87.30;;;;;;4987719;28;20206;-72
2023/05/14 12:48:50;;;;;;;3.53;3.33;;;20.50;87.90;;;;;;4987803;28;20317;-73